Hankamer, Texas
Current Conditions -  °F | °C
As of 11:15 AM on Wednesday 26 Nov 2014 (Local Time) from KBMT Reporting Station
Clear Clear  
Wind Chill: 66°   Ceiling: Unl
Heat Index: 66°   Visibility: 10mi
Dew Point: 43°   Wind: 13mph
Humidity: 43%   Direction: 230°SW
Pressure: 30.23"   Gusts: 25mph
Location:  29.86°N, 94.63°W
Report Text: KBMT 261715Z AUTO 23011G22KT 10SM CLR 19/06 A3023 RMK AO2 T01880059
Loading
Personal Weather Stations






























Interactive Weather Map New forecast layout! Learn more

10-Day Weather Forecast

Advertisements
Track Severe Weather on mobile